Weather History for Two Harbors, MN

Change the Weather History Date:

Monday, October 15, 2012

  Actual Average Record
Temperature  
Mean Temperature 41 °F -  
Max Temperature 50 °F 53 °F 73 °F (1962)
Min Temperature 32 °F 36 °F 24 °F (2006)
Degree Days  
Heating Degree Days 24    
Moisture  
Dew Point 30 °F    
Average Humidity 64    
Maximum Humidity 87    
Minimum Humidity 46    
Precipitation  
Precipitation 0.00 in - - ()
Sea Level Pressure  
Sea Level Pressure 29.84 in    
Wind  
Wind Speed 3 mph (ENE)    
Max Wind Speed 7 mph    
Max Gust Speed -    
Visibility 10 miles    
Events      
Averages and records for this station are not official NWS values.
T = Trace of Precipitation, MM = Missing Value Source: NWS Daily Summary

Daily Weather History Graph

Daily Weather History Graph

Search for Another Location

Airport:

Trip Planner

Search our weather history database for the weather conditions in past years. The results will help you decide how hot, cold, wet, or windy it might be!

Date:

Astronomy

Oct. 15, 2012 Rise Set
Actual Time 7:25 AM CDT 6:18 PM CDT
Civil Twilight 6:55 AM CDT 6:49 PM CDT
Nautical Twilight 6:19 AM CDT 7:24 PM CDT
Astronomical Twilight 5:44 AM CDT 7:59 PM CDT
Moon 7:40 AM CDT (10/15) 6:12 PM CDT (10/15)
Length of Visible Light 11h 54m
Length of Day
10h 52m
New Moon, 0% of the Moon is Illuminated
Oct 15
New Moon
Oct 21
First Quarter
Oct 29
Full
Nov 6
Last Quarter
Nov 13
New

Hourly Weather History & Observations

Time (CDT) Temp. Windchill Dew Point Humidity Pressure Visibility Wind Dir Wind Speed Gust Speed Precip Events Conditions
12:12 AM 42.8 °F - 30.2 °F 61% 29.83 in 10.0 mi Calm Calm - N/A   Overcast
12:31 AM 42.8 °F 41.1 °F 30.2 °F 61% 29.83 in 10.0 mi NNW 3.5 mph - N/A   Overcast
12:51 AM 41.0 °F 39.0 °F 28.4 °F 61% 29.82 in 10.0 mi NNW 3.5 mph - N/A   Overcast
1:12 AM 41.0 °F 39.0 °F 28.4 °F 61% 29.83 in 10.0 mi NNW 3.5 mph - N/A   Overcast
1:31 AM 41.0 °F 39.0 °F 28.4 °F 61% 29.83 in 10.0 mi NNW 3.5 mph - N/A   Overcast
1:51 AM 39.2 °F 37.0 °F 28.4 °F 65% 29.83 in 10.0 mi NNW 3.5 mph - N/A   Mostly Cloudy
2:12 AM 37.4 °F 34.9 °F 28.4 °F 70% 29.83 in 10.0 mi NW 3.5 mph - N/A   Clear
2:51 AM 37.4 °F - 28.4 °F 70% 29.84 in 10.0 mi Calm Calm - N/A   Mostly Cloudy
3:12 AM 39.2 °F 37.0 °F 28.4 °F 65% 29.84 in 10.0 mi NNW 3.5 mph - N/A   Overcast
3:31 AM 37.4 °F - 26.6 °F 65% 29.83 in 10.0 mi Calm Calm - N/A   Mostly Cloudy
3:51 AM 37.4 °F - 28.4 °F 70% 29.84 in 10.0 mi Calm Calm - N/A   Mostly Cloudy
4:12 AM 37.4 °F 34.9 °F 28.4 °F 70% 29.84 in 10.0 mi NNW 3.5 mph - N/A   Scattered Clouds
4:51 AM 33.8 °F 30.8 °F 26.6 °F 75% 29.85 in 10.0 mi NNW 3.5 mph - N/A   Clear
5:12 AM 33.8 °F 29.6 °F 26.6 °F 75% 29.85 in 10.0 mi NW 4.6 mph - N/A   Clear
5:51 AM 32.0 °F - 26.6 °F 80% 29.85 in 10.0 mi Calm Calm - N/A   Clear
6:12 AM 33.8 °F - 26.6 °F 75% 29.85 in 10.0 mi Calm Calm - N/A   Clear
6:31 AM 33.8 °F - 26.6 °F 75% 29.86 in 10.0 mi Calm Calm - N/A   Clear
6:51 AM 33.8 °F - 26.6 °F 75% 29.86 in 10.0 mi Calm Calm - N/A   Clear
7:12 AM 33.8 °F - 24.8 °F 70% 29.87 in 10.0 mi Calm Calm - N/A   Clear
7:31 AM 33.8 °F - 24.8 °F 70% 29.87 in 10.0 mi Calm Calm - N/A   Clear
7:51 AM 33.8 °F - 24.8 °F 70% 29.88 in 10.0 mi Calm Calm - N/A   Clear
8:12 AM 35.6 °F 32.8 °F 24.8 °F 65% 29.88 in 10.0 mi NNW 3.5 mph - N/A   Clear
8:31 AM 37.4 °F - 28.4 °F 70% 29.88 in 10.0 mi Calm Calm - N/A   Clear
8:51 AM 39.2 °F - 28.4 °F 65% 29.88 in 10.0 mi Calm Calm - N/A   Clear
9:12 AM 39.2 °F - 28.4 °F 65% 29.88 in 10.0 mi Calm Calm - N/A   Clear
9:31 AM 44.6 °F 42.2 °F 30.2 °F 57% 29.88 in 10.0 mi ESE 4.6 mph - N/A   Clear
9:51 AM 44.6 °F 41.4 °F 30.2 °F 57% 29.88 in 10.0 mi SSE 5.8 mph - N/A   Clear
10:12 AM 46.4 °F 44.3 °F 30.2 °F 53% 29.90 in 10.0 mi South 4.6 mph - N/A   Clear
10:31 AM 46.4 °F 43.5 °F 30.2 °F 53% 29.91 in 10.0 mi SSE 5.8 mph - N/A   Clear
10:51 AM 46.4 °F 43.5 °F 30.2 °F 53% 29.89 in 10.0 mi SSE 5.8 mph - N/A   Clear
11:11 AM 48.2 °F - 30.2 °F 50% 29.89 in 10.0 mi SE 3.5 mph - N/A   Clear
11:51 AM 48.2 °F - 30.2 °F 50% 29.89 in 10.0 mi ESE 6.9 mph - N/A   Clear
12:11 PM 48.2 °F - 28.4 °F 46% 29.90 in 10.0 mi SSE 5.8 mph - N/A   Clear
12:31 PM 50.0 °F - 30.2 °F 47% 29.89 in 10.0 mi ESE 5.8 mph - N/A   Clear
1:11 PM 48.2 °F - 30.2 °F 50% 29.89 in 10.0 mi SE 6.9 mph - N/A   Clear
1:31 PM 50.0 °F - 32.0 °F 50% 29.88 in 10.0 mi SSE 4.6 mph - N/A   Clear
1:51 PM 50.0 °F - 32.0 °F 50% 29.88 in 10.0 mi SSE 6.9 mph - N/A   Clear
2:11 PM 48.2 °F - 32.0 °F 54% 29.87 in 10.0 mi ESE 6.9 mph - N/A   Clear
2:31 PM 48.2 °F - 32.0 °F 54% 29.87 in 10.0 mi ESE 5.8 mph - N/A   Clear
2:51 PM 48.2 °F - 30.2 °F 50% 29.86 in 10.0 mi SE 5.8 mph - N/A   Clear
3:12 PM 48.2 °F - 30.2 °F 50% 29.85 in 10.0 mi ESE 5.8 mph - N/A   Clear
3:31 PM 48.2 °F - 30.2 °F 50% 29.85 in 10.0 mi East 4.6 mph - N/A   Clear
3:51 PM 44.6 °F 41.4 °F 30.2 °F 57% 29.85 in 10.0 mi East 5.8 mph - N/A   Clear
4:12 PM 46.4 °F 43.5 °F 30.2 °F 53% 29.85 in 10.0 mi ENE 5.8 mph - N/A   Clear
4:31 PM 46.4 °F 43.5 °F 32.0 °F 57% 29.85 in 10.0 mi ENE 5.8 mph - N/A   Clear
4:51 PM 44.6 °F 41.4 °F 30.2 °F 57% 29.84 in 10.0 mi ENE 5.8 mph - N/A   Clear
5:12 PM 44.6 °F 41.4 °F 30.2 °F 57% 29.84 in 10.0 mi East 5.8 mph - N/A   Clear
5:31 PM 42.8 °F 40.1 °F 28.4 °F 57% 29.84 in 10.0 mi East 4.6 mph - N/A   Clear
5:51 PM 42.8 °F 40.1 °F 28.4 °F 57% 29.84 in 10.0 mi ENE 4.6 mph - N/A   Clear
6:12 PM 42.8 °F 40.1 °F 28.4 °F 57% 29.83 in 10.0 mi NE 4.6 mph - N/A   Scattered Clouds
6:31 PM 42.8 °F 40.1 °F 28.4 °F 57% 29.83 in 10.0 mi NE 4.6 mph - N/A   Scattered Clouds
6:52 PM 42.8 °F 40.1 °F 28.4 °F 57% 29.82 in 10.0 mi NE 4.6 mph - N/A   Mostly Cloudy
7:11 PM 41.0 °F 37.1 °F 28.4 °F 61% 29.82 in 10.0 mi NE 5.8 mph - N/A   Scattered Clouds
7:32 PM 41.0 °F 38.0 °F 30.2 °F 65% 29.82 in 10.0 mi NE 4.6 mph - N/A   Scattered Clouds
7:51 PM 41.0 °F 36.4 °F 32.0 °F 70% 29.81 in 10.0 mi NE 6.9 mph - N/A   Mostly Cloudy
8:12 PM 41.0 °F 38.0 °F 33.8 °F 76% 29.81 in 10.0 mi NE 4.6 mph - N/A   Overcast
8:31 PM 41.0 °F 38.0 °F 33.8 °F 76% 29.80 in 10.0 mi NE 4.6 mph - N/A   Overcast
8:51 PM 41.0 °F 37.1 °F 33.8 °F 76% 29.80 in 10.0 mi NE 5.8 mph - N/A   Overcast
9:12 PM 41.0 °F 38.0 °F 33.8 °F 76% 29.80 in 10.0 mi NE 4.6 mph - N/A   Overcast
9:31 PM 41.0 °F 38.0 °F 33.8 °F 76% 29.80 in 10.0 mi NE 4.6 mph - N/A   Overcast
9:51 PM 39.2 °F 35.9 °F 33.8 °F 81% 29.81 in 10.0 mi NE 4.6 mph - N/A   Overcast
10:12 PM 39.2 °F 35.0 °F 33.8 °F 81% 29.79 in 10.0 mi NE 5.8 mph - N/A   Overcast
10:31 PM 39.2 °F 35.0 °F 35.6 °F 87% 29.78 in 10.0 mi NE 5.8 mph - N/A   Overcast
10:51 PM 39.2 °F 35.9 °F 35.6 °F 87% 29.78 in 10.0 mi NE 4.6 mph - N/A   Overcast
11:12 PM 39.2 °F 35.9 °F 35.6 °F 87% 29.77 in 10.0 mi NE 4.6 mph - N/A   Overcast
11:31 PM 39.2 °F 35.0 °F 35.6 °F 87% 29.76 in 10.0 mi NE 5.8 mph - N/A   Overcast
11:52 PM 39.2 °F 35.9 °F 33.8 °F 81% 29.75 in 10.0 mi NE 4.6 mph - N/A   Overcast